sensor_id;sensor_type;location;lat;lon;timestamp;temperature;humidity
75719;DHT22;64340;48.534;-3.036;2023-12-20T00:01:48;17.20;62.00
75719;DHT22;64340;48.534;-3.036;2023-12-20T00:04:14;17.20;61.80
75719;DHT22;64340;48.534;-3.036;2023-12-20T00:06:40;17.20;61.70
75719;DHT22;64340;48.534;-3.036;2023-12-20T00:09:06;17.20;61.70
75719;DHT22;64340;48.534;-3.036;2023-12-20T00:11:31;17.20;61.90
75719;DHT22;64340;48.534;-3.036;2023-12-20T00:13:57;17.20;61.70
75719;DHT22;64340;48.534;-3.036;2023-12-20T00:16:23;17.20;61.60
75719;DHT22;64340;48.534;-3.036;2023-12-20T00:18:48;17.20;61.20
75719;DHT22;64340;48.534;-3.036;2023-12-20T00:21:14;17.10;61.60
75719;DHT22;64340;48.534;-3.036;2023-12-20T00:23:40;17.10;61.30
75719;DHT22;64340;48.534;-3.036;2023-12-20T00:26:05;17.00;61.10
75719;DHT22;64340;48.534;-3.036;2023-12-20T00:28:31;17.00;61.00
75719;DHT22;64340;48.534;-3.036;2023-12-20T00:30:57;17.00;61.30
75719;DHT22;64340;48.534;-3.036;2023-12-20T00:33:22;17.00;61.50
75719;DHT22;64340;48.534;-3.036;2023-12-20T00:35:48;17.00;60.70
75719;DHT22;64340;48.534;-3.036;2023-12-20T00:38:14;17.00;61.00
75719;DHT22;64340;48.534;-3.036;2023-12-20T00:40:40;17.00;61.30
75719;DHT22;64340;48.534;-3.036;2023-12-20T00:43:05;17.00;61.60
75719;DHT22;64340;48.534;-3.036;2023-12-20T00:45:31;17.00;60.90
75719;DHT22;64340;48.534;-3.036;2023-12-20T00:47:57;16.90;61.30
75719;DHT22;64340;48.534;-3.036;2023-12-20T00:50:22;16.90;61.30
75719;DHT22;64340;48.534;-3.036;2023-12-20T00:52:48;16.90;61.10
75719;DHT22;64340;48.534;-3.036;2023-12-20T00:55:14;16.90;60.70
75719;DHT22;64340;48.534;-3.036;2023-12-20T00:57:40;16.90;61.20
75719;DHT22;64340;48.534;-3.036;2023-12-20T01:00:06;16.90;61.00
75719;DHT22;64340;48.534;-3.036;2023-12-20T01:02:32;16.90;61.00
75719;DHT22;64340;48.534;-3.036;2023-12-20T01:04:57;16.80;61.30
75719;DHT22;64340;48.534;-3.036;2023-12-20T01:07:23;16.80;60.80
75719;DHT22;64340;48.534;-3.036;2023-12-20T01:09:49;16.80;60.70
75719;DHT22;64340;48.534;-3.036;2023-12-20T01:12:14;16.80;61.10
75719;DHT22;64340;48.534;-3.036;2023-12-20T01:14:40;16.80;61.00
75719;DHT22;64340;48.534;-3.036;2023-12-20T01:17:06;16.80;61.10
75719;DHT22;64340;48.534;-3.036;2023-12-20T01:19:32;16.80;61.20
75719;DHT22;64340;48.534;-3.036;2023-12-20T01:21:57;16.80;61.30
75719;DHT22;64340;48.534;-3.036;2023-12-20T01:24:23;16.80;61.30
75719;DHT22;64340;48.534;-3.036;2023-12-20T01:26:49;16.80;61.40
75719;DHT22;64340;48.534;-3.036;2023-12-20T01:29:14;16.80;61.40
75719;DHT22;64340;48.534;-3.036;2023-12-20T01:31:41;16.70;61.10
75719;DHT22;64340;48.534;-3.036;2023-12-20T01:34:07;16.70;61.10
75719;DHT22;64340;48.534;-3.036;2023-12-20T01:36:32;16.70;61.00
75719;DHT22;64340;48.534;-3.036;2023-12-20T01:38:58;16.70;61.10
75719;DHT22;64340;48.534;-3.036;2023-12-20T01:41:24;16.70;61.20
75719;DHT22;64340;48.534;-3.036;2023-12-20T01:43:50;16.70;60.80
75719;DHT22;64340;48.534;-3.036;2023-12-20T01:46:17;16.70;61.10
75719;DHT22;64340;48.534;-3.036;2023-12-20T01:48:42;16.60;61.40
75719;DHT22;64340;48.534;-3.036;2023-12-20T01:51:08;16.70;61.20
75719;DHT22;64340;48.534;-3.036;2023-12-20T01:53:35;16.60;61.00
75719;DHT22;64340;48.534;-3.036;2023-12-20T01:56:01;16.60;61.40
75719;DHT22;64340;48.534;-3.036;2023-12-20T01:58:27;16.60;61.00
75719;DHT22;64340;48.534;-3.036;2023-12-20T02:00:54;16.60;61.10
75719;DHT22;64340;48.534;-3.036;2023-12-20T02:03:20;16.60;61.10
75719;DHT22;64340;48.534;-3.036;2023-12-20T02:05:47;16.60;61.10
75719;DHT22;64340;48.534;-3.036;2023-12-20T02:08:13;16.50;60.80
75719;DHT22;64340;48.534;-3.036;2023-12-20T02:10:39;16.50;61.10
75719;DHT22;64340;48.534;-3.036;2023-12-20T02:13:06;16.50;61.20
75719;DHT22;64340;48.534;-3.036;2023-12-20T02:15:32;16.50;61.40
75719;DHT22;64340;48.534;-3.036;2023-12-20T02:17:57;16.50;61.20
75719;DHT22;64340;48.534;-3.036;2023-12-20T02:20:23;16.50;61.30
75719;DHT22;64340;48.534;-3.036;2023-12-20T02:22:49;16.50;61.20
75719;DHT22;64340;48.534;-3.036;2023-12-20T02:25:14;16.50;61.30
75719;DHT22;64340;48.534;-3.036;2023-12-20T02:27:40;16.40;61.30
75719;DHT22;64340;48.534;-3.036;2023-12-20T02:30:07;16.40;61.40
75719;DHT22;64340;48.534;-3.036;2023-12-20T02:32:33;16.40;61.30
75719;DHT22;64340;48.534;-3.036;2023-12-20T02:34:58;16.40;61.30
75719;DHT22;64340;48.534;-3.036;2023-12-20T02:37:24;16.40;61.20
75719;DHT22;64340;48.534;-3.036;2023-12-20T02:39:50;16.40;61.20
75719;DHT22;64340;48.534;-3.036;2023-12-20T02:42:16;16.40;61.20
75719;DHT22;64340;48.534;-3.036;2023-12-20T02:44:41;16.40;61.10
75719;DHT22;64340;48.534;-3.036;2023-12-20T02:47:07;16.40;61.00
75719;DHT22;64340;48.534;-3.036;2023-12-20T02:49:33;16.40;61.20
75719;DHT22;64340;48.534;-3.036;2023-12-20T02:51:58;16.40;61.50
75719;DHT22;64340;48.534;-3.036;2023-12-20T02:54:24;16.40;61.50
75719;DHT22;64340;48.534;-3.036;2023-12-20T02:56:50;16.40;61.50
75719;DHT22;64340;48.534;-3.036;2023-12-20T02:59:15;16.40;61.50
75719;DHT22;64340;48.534;-3.036;2023-12-20T03:01:45;16.40;61.50
75719;DHT22;64340;48.534;-3.036;2023-12-20T03:04:12;16.40;61.50
75719;DHT22;64340;48.534;-3.036;2023-12-20T03:06:38;16.40;61.20
75719;DHT22;64340;48.534;-3.036;2023-12-20T03:09:03;16.40;61.20
75719;DHT22;64340;48.534;-3.036;2023-12-20T03:11:29;16.30;61.40
75719;DHT22;64340;48.534;-3.036;2023-12-20T03:13:56;16.30;61.30
75719;DHT22;64340;48.534;-3.036;2023-12-20T03:16:22;16.30;61.20
75719;DHT22;64340;48.534;-3.036;2023-12-20T03:18:48;16.30;61.40
75719;DHT22;64340;48.534;-3.036;2023-12-20T03:21:14;16.30;61.30
75719;DHT22;64340;48.534;-3.036;2023-12-20T03:23:40;16.20;61.20
75719;DHT22;64340;48.534;-3.036;2023-12-20T03:26:09;16.20;61.20
75719;DHT22;64340;48.534;-3.036;2023-12-20T03:28:36;16.20;61.10
75719;DHT22;64340;48.534;-3.036;2023-12-20T03:31:02;16.20;61.10
75719;DHT22;64340;48.534;-3.036;2023-12-20T03:33:28;16.20;61.10
75719;DHT22;64340;48.534;-3.036;2023-12-20T03:35:54;16.20;61.10
75719;DHT22;64340;48.534;-3.036;2023-12-20T03:38:20;16.20;61.10
75719;DHT22;64340;48.534;-3.036;2023-12-20T03:40:46;16.20;61.20
75719;DHT22;64340;48.534;-3.036;2023-12-20T03:43:11;16.10;61.30
75719;DHT22;64340;48.534;-3.036;2023-12-20T03:45:37;16.10;61.00
75719;DHT22;64340;48.534;-3.036;2023-12-20T03:48:03;16.10;61.00
75719;DHT22;64340;48.534;-3.036;2023-12-20T03:50:29;16.10;61.00
75719;DHT22;64340;48.534;-3.036;2023-12-20T03:52:55;16.10;61.00
75719;DHT22;64340;48.534;-3.036;2023-12-20T03:55:20;16.10;61.10
75719;DHT22;64340;48.534;-3.036;2023-12-20T03:57:46;16.10;61.30
75719;DHT22;64340;48.534;-3.036;2023-12-20T04:00:12;16.10;61.10
75719;DHT22;64340;48.534;-3.036;2023-12-20T04:02:38;16.10;61.10
75719;DHT22;64340;48.534;-3.036;2023-12-20T04:05:05;16.10;61.10
75719;DHT22;64340;48.534;-3.036;2023-12-20T04:07:31;16.00;61.00
75719;DHT22;64340;48.534;-3.036;2023-12-20T04:09:57;16.00;60.80
75719;DHT22;64340;48.534;-3.036;2023-12-20T04:12:23;16.00;61.20
75719;DHT22;64340;48.534;-3.036;2023-12-20T04:14:49;16.00;61.00
75719;DHT22;64340;48.534;-3.036;2023-12-20T04:17:15;16.00;60.90
75719;DHT22;64340;48.534;-3.036;2023-12-20T04:19:42;16.00;61.00
75719;DHT22;64340;48.534;-3.036;2023-12-20T04:22:07;16.00;60.80
75719;DHT22;64340;48.534;-3.036;2023-12-20T04:24:33;16.00;61.00
75719;DHT22;64340;48.534;-3.036;2023-12-20T04:26:59;16.00;61.10
75719;DHT22;64340;48.534;-3.036;2023-12-20T04:29:25;16.00;61.40
75719;DHT22;64340;48.534;-3.036;2023-12-20T04:31:50;16.00;61.50
75719;DHT22;64340;48.534;-3.036;2023-12-20T04:34:20;16.00;61.40
75719;DHT22;64340;48.534;-3.036;2023-12-20T04:36:46;16.00;61.40
75719;DHT22;64340;48.534;-3.036;2023-12-20T04:39:13;15.90;61.50
75719;DHT22;64340;48.534;-3.036;2023-12-20T04:41:39;15.90;61.50
75719;DHT22;64340;48.534;-3.036;2023-12-20T04:44:06;15.90;61.20
75719;DHT22;64340;48.534;-3.036;2023-12-20T04:46:32;15.90;61.20
75719;DHT22;64340;48.534;-3.036;2023-12-20T04:48:58;15.90;61.00
75719;DHT22;64340;48.534;-3.036;2023-12-20T04:51:23;15.90;61.10
75719;DHT22;64340;48.534;-3.036;2023-12-20T04:53:49;15.90;61.30
75719;DHT22;64340;48.534;-3.036;2023-12-20T04:56:15;15.90;61.40
75719;DHT22;64340;48.534;-3.036;2023-12-20T04:58:42;15.80;61.40
75719;DHT22;64340;48.534;-3.036;2023-12-20T05:01:08;15.80;61.50
75719;DHT22;64340;48.534;-3.036;2023-12-20T05:03:34;15.80;61.40
75719;DHT22;64340;48.534;-3.036;2023-12-20T05:06:00;15.80;61.40
75719;DHT22;64340;48.534;-3.036;2023-12-20T05:08:26;15.80;61.40
75719;DHT22;64340;48.534;-3.036;2023-12-20T05:10:54;15.80;61.20
75719;DHT22;64340;48.534;-3.036;2023-12-20T05:13:20;15.80;61.20
75719;DHT22;64340;48.534;-3.036;2023-12-20T05:15:46;15.80;61.20
75719;DHT22;64340;48.534;-3.036;2023-12-20T05:18:12;15.80;61.20
75719;DHT22;64340;48.534;-3.036;2023-12-20T05:20:38;15.80;61.20
75719;DHT22;64340;48.534;-3.036;2023-12-20T05:23:04;15.80;61.00
75719;DHT22;64340;48.534;-3.036;2023-12-20T05:25:30;15.80;61.00
75719;DHT22;64340;48.534;-3.036;2023-12-20T05:27:56;15.80;61.00
75719;DHT22;64340;48.534;-3.036;2023-12-20T05:30:22;15.80;60.90
75719;DHT22;64340;48.534;-3.036;2023-12-20T05:32:48;15.80;61.00
75719;DHT22;64340;48.534;-3.036;2023-12-20T05:35:13;15.80;61.20
75719;DHT22;64340;48.534;-3.036;2023-12-20T05:37:39;15.80;60.90
75719;DHT22;64340;48.534;-3.036;2023-12-20T05:40:05;15.80;60.90
75719;DHT22;64340;48.534;-3.036;2023-12-20T05:42:31;15.80;60.80
75719;DHT22;64340;48.534;-3.036;2023-12-20T05:44:57;15.80;61.00
75719;DHT22;64340;48.534;-3.036;2023-12-20T05:47:23;15.80;60.90
75719;DHT22;64340;48.534;-3.036;2023-12-20T05:49:48;15.80;61.10
75719;DHT22;64340;48.534;-3.036;2023-12-20T05:52:15;15.80;61.20
75719;DHT22;64340;48.534;-3.036;2023-12-20T05:54:41;15.80;61.30
75719;DHT22;64340;48.534;-3.036;2023-12-20T05:57:07;15.80;61.60
75719;DHT22;64340;48.534;-3.036;2023-12-20T05:59:32;15.80;62.30
75719;DHT22;64340;48.534;-3.036;2023-12-20T06:01:58;15.80;62.10
75719;DHT22;64340;48.534;-3.036;2023-12-20T06:04:24;15.80;62.50
75719;DHT22;64340;48.534;-3.036;2023-12-20T06:06:50;15.80;61.90
75719;DHT22;64340;48.534;-3.036;2023-12-20T06:09:15;15.80;62.00
75719;DHT22;64340;48.534;-3.036;2023-12-20T06:11:41;15.80;61.70
75719;DHT22;64340;48.534;-3.036;2023-12-20T06:14:07;15.80;61.70
75719;DHT22;64340;48.534;-3.036;2023-12-20T06:16:32;15.80;61.40
75719;DHT22;64340;48.534;-3.036;2023-12-20T06:18:58;15.80;61.60
75719;DHT22;64340;48.534;-3.036;2023-12-20T06:21:24;15.80;61.70
75719;DHT22;64340;48.534;-3.036;2023-12-20T06:23:50;15.80;61.90
75719;DHT22;64340;48.534;-3.036;2023-12-20T06:26:15;15.80;62.30
75719;DHT22;64340;48.534;-3.036;2023-12-20T06:28:41;15.80;62.50
75719;DHT22;64340;48.534;-3.036;2023-12-20T06:31:07;15.80;62.70
75719;DHT22;64340;48.534;-3.036;2023-12-20T06:33:32;15.80;62.60
75719;DHT22;64340;48.534;-3.036;2023-12-20T06:35:58;15.70;63.30
75719;DHT22;64340;48.534;-3.036;2023-12-20T06:38:24;15.80;63.80
75719;DHT22;64340;48.534;-3.036;2023-12-20T06:40:50;15.80;63.20
75719;DHT22;64340;48.534;-3.036;2023-12-20T06:43:16;15.70;63.40
75719;DHT22;64340;48.534;-3.036;2023-12-20T06:45:41;15.80;63.30
75719;DHT22;64340;48.534;-3.036;2023-12-20T06:48:07;15.60;63.40
75719;DHT22;64340;48.534;-3.036;2023-12-20T06:50:33;15.60;63.30
75719;DHT22;64340;48.534;-3.036;2023-12-20T06:52:59;15.60;63.30
75719;DHT22;64340;48.534;-3.036;2023-12-20T06:55:24;15.60;63.40
75719;DHT22;64340;48.534;-3.036;2023-12-20T06:57:50;15.60;63.30
75719;DHT22;64340;48.534;-3.036;2023-12-20T07:00:16;15.60;63.30
75719;DHT22;64340;48.534;-3.036;2023-12-20T07:02:43;15.60;63.40
75719;DHT22;64340;48.534;-3.036;2023-12-20T07:05:09;15.60;63.40
75719;DHT22;64340;48.534;-3.036;2023-12-20T07:07:35;15.60;63.40
75719;DHT22;64340;48.534;-3.036;2023-12-20T07:10:01;15.50;63.40
75719;DHT22;64340;48.534;-3.036;2023-12-20T07:12:26;15.50;63.40
75719;DHT22;64340;48.534;-3.036;2023-12-20T07:14:52;15.50;63.40
75719;DHT22;64340;48.534;-3.036;2023-12-20T07:17:18;15.50;63.40
75719;DHT22;64340;48.534;-3.036;2023-12-20T07:19:43;15.50;63.50
75719;DHT22;64340;48.534;-3.036;2023-12-20T07:22:09;15.50;63.60
75719;DHT22;64340;48.534;-3.036;2023-12-20T07:24:35;15.40;63.60
75719;DHT22;64340;48.534;-3.036;2023-12-20T07:27:01;15.40;63.70
75719;DHT22;64340;48.534;-3.036;2023-12-20T07:29:27;15.40;63.60
75719;DHT22;64340;48.534;-3.036;2023-12-20T07:31:53;15.40;63.50
75719;DHT22;64340;48.534;-3.036;2023-12-20T07:34:20;15.40;63.50
75719;DHT22;64340;48.534;-3.036;2023-12-20T07:36:46;15.30;63.40
75719;DHT22;64340;48.534;-3.036;2023-12-20T07:39:12;15.40;63.50
75719;DHT22;64340;48.534;-3.036;2023-12-20T07:41:38;15.30;63.40
75719;DHT22;64340;48.534;-3.036;2023-12-20T07:44:05;15.30;63.40
75719;DHT22;64340;48.534;-3.036;2023-12-20T07:46:30;15.30;63.30
75719;DHT22;64340;48.534;-3.036;2023-12-20T07:48:56;15.30;63.30
75719;DHT22;64340;48.534;-3.036;2023-12-20T07:51:22;15.30;63.40
75719;DHT22;64340;48.534;-3.036;2023-12-20T07:53:48;15.30;63.40
75719;DHT22;64340;48.534;-3.036;2023-12-20T07:56:17;15.30;63.30
75719;DHT22;64340;48.534;-3.036;2023-12-20T07:58:43;15.20;63.30
75719;DHT22;64340;48.534;-3.036;2023-12-20T08:01:10;15.20;63.30
75719;DHT22;64340;48.534;-3.036;2023-12-20T08:03:36;15.20;63.20
75719;DHT22;64340;48.534;-3.036;2023-12-20T08:06:02;15.20;63.20
75719;DHT22;64340;48.534;-3.036;2023-12-20T08:08:30;15.20;63.20
75719;DHT22;64340;48.534;-3.036;2023-12-20T08:10:56;15.20;63.20
75719;DHT22;64340;48.534;-3.036;2023-12-20T08:13:24;15.10;63.20
75719;DHT22;64340;48.534;-3.036;2023-12-20T08:15:52;15.00;63.10
75719;DHT22;64340;48.534;-3.036;2023-12-20T08:18:18;15.00;63.00
75719;DHT22;64340;48.534;-3.036;2023-12-20T08:20:44;15.10;63.00
75719;DHT22;64340;48.534;-3.036;2023-12-20T08:23:09;15.10;63.00
75719;DHT22;64340;48.534;-3.036;2023-12-20T08:25:35;15.10;63.00
75719;DHT22;64340;48.534;-3.036;2023-12-20T08:28:04;15.00;63.00
75719;DHT22;64340;48.534;-3.036;2023-12-20T08:30:30;15.00;62.90
75719;DHT22;64340;48.534;-3.036;2023-12-20T08:32:56;15.00;62.80
75719;DHT22;64340;48.534;-3.036;2023-12-20T08:35:22;15.00;62.80
75719;DHT22;64340;48.534;-3.036;2023-12-20T08:37:48;15.00;62.70
75719;DHT22;64340;48.534;-3.036;2023-12-20T08:40:13;15.00;62.70
75719;DHT22;64340;48.534;-3.036;2023-12-20T08:42:39;15.00;62.60
75719;DHT22;64340;48.534;-3.036;2023-12-20T08:45:05;15.00;62.50
75719;DHT22;64340;48.534;-3.036;2023-12-20T08:47:31;15.00;62.60
75719;DHT22;64340;48.534;-3.036;2023-12-20T08:49:57;15.00;62.50
75719;DHT22;64340;48.534;-3.036;2023-12-20T08:52:25;15.00;62.50
75719;DHT22;64340;48.534;-3.036;2023-12-20T08:54:53;15.00;62.40
75719;DHT22;64340;48.534;-3.036;2023-12-20T08:57:21;15.00;62.40
75719;DHT22;64340;48.534;-3.036;2023-12-20T08:59:49;15.10;62.20
75719;DHT22;64340;48.534;-3.036;2023-12-20T09:02:15;15.10;62.30
75719;DHT22;64340;48.534;-3.036;2023-12-20T09:04:41;15.00;62.30
75719;DHT22;64340;48.534;-3.036;2023-12-20T09:07:07;15.00;62.40
75719;DHT22;64340;48.534;-3.036;2023-12-20T09:09:33;15.00;62.40
75719;DHT22;64340;48.534;-3.036;2023-12-20T09:11:59;15.00;62.40
75719;DHT22;64340;48.534;-3.036;2023-12-20T09:14:25;15.00;62.40
75719;DHT22;64340;48.534;-3.036;2023-12-20T09:16:50;15.10;62.50
75719;DHT22;64340;48.534;-3.036;2023-12-20T09:19:17;15.10;62.40
75719;DHT22;64340;48.534;-3.036;2023-12-20T09:21:43;15.20;62.40
75719;DHT22;64340;48.534;-3.036;2023-12-20T09:24:09;15.10;62.40
75719;DHT22;64340;48.534;-3.036;2023-12-20T09:26:34;15.20;62.50
75719;DHT22;64340;48.534;-3.036;2023-12-20T09:29:00;15.10;62.50
75719;DHT22;64340;48.534;-3.036;2023-12-20T09:31:26;15.20;62.50
75719;DHT22;64340;48.534;-3.036;2023-12-20T09:33:52;15.10;62.60
75719;DHT22;64340;48.534;-3.036;2023-12-20T09:36:18;15.20;62.60
75719;DHT22;64340;48.534;-3.036;2023-12-20T09:38:44;15.20;62.60
75719;DHT22;64340;48.534;-3.036;2023-12-20T09:41:09;15.20;62.60
75719;DHT22;64340;48.534;-3.036;2023-12-20T09:43:37;15.20;62.60
75719;DHT22;64340;48.534;-3.036;2023-12-20T09:46:05;15.30;62.50
75719;DHT22;64340;48.534;-3.036;2023-12-20T09:48:33;15.30;62.50
75719;DHT22;64340;48.534;-3.036;2023-12-20T09:50:59;15.30;62.50
75719;DHT22;64340;48.534;-3.036;2023-12-20T09:53:25;15.20;62.50
75719;DHT22;64340;48.534;-3.036;2023-12-20T09:56:00;15.20;62.50
75719;DHT22;64340;48.534;-3.036;2023-12-20T09:58:27;15.20;62.60
75719;DHT22;64340;48.534;-3.036;2023-12-20T10:00:53;15.20;62.60
75719;DHT22;64340;48.534;-3.036;2023-12-20T10:03:24;15.20;62.60
75719;DHT22;64340;48.534;-3.036;2023-12-20T10:05:54;15.20;62.60
75719;DHT22;64340;48.534;-3.036;2023-12-20T10:08:22;15.20;62.60
75719;DHT22;64340;48.534;-3.036;2023-12-20T10:10:48;15.20;62.70
75719;DHT22;64340;48.534;-3.036;2023-12-20T10:13:15;15.20;62.70
75719;DHT22;64340;48.534;-3.036;2023-12-20T10:15:41;15.20;62.70
75719;DHT22;64340;48.534;-3.036;2023-12-20T10:18:07;15.20;62.70
75719;DHT22;64340;48.534;-3.036;2023-12-20T10:20:33;15.20;62.70
75719;DHT22;64340;48.534;-3.036;2023-12-20T10:23:00;15.20;62.60
75719;DHT22;64340;48.534;-3.036;2023-12-20T10:25:27;15.20;62.50
75719;DHT22;64340;48.534;-3.036;2023-12-20T10:28:15;15.20;62.50
75719;DHT22;64340;48.534;-3.036;2023-12-20T10:30:46;15.20;62.50
75719;DHT22;64340;48.534;-3.036;2023-12-20T10:33:12;15.20;62.70
75719;DHT22;64340;48.534;-3.036;2023-12-20T10:35:39;15.10;62.70
75719;DHT22;64340;48.534;-3.036;2023-12-20T10:38:06;15.10;62.80
75719;DHT22;64340;48.534;-3.036;2023-12-20T10:40:35;15.20;62.80
75719;DHT22;64340;48.534;-3.036;2023-12-20T10:43:03;15.20;62.90
75719;DHT22;64340;48.534;-3.036;2023-12-20T10:45:29;15.10;62.90
75719;DHT22;64340;48.534;-3.036;2023-12-20T10:47:55;15.10;62.90
75719;DHT22;64340;48.534;-3.036;2023-12-20T10:50:21;15.20;62.90
75719;DHT22;64340;48.534;-3.036;2023-12-20T10:52:47;15.20;62.90
75719;DHT22;64340;48.534;-3.036;2023-12-20T10:55:13;15.10;62.90
75719;DHT22;64340;48.534;-3.036;2023-12-20T10:57:39;15.10;62.80
75719;DHT22;64340;48.534;-3.036;2023-12-20T11:00:08;15.20;62.80
75719;DHT22;64340;48.534;-3.036;2023-12-20T11:02:39;15.20;62.70
75719;DHT22;64340;48.534;-3.036;2023-12-20T11:07:59;15.20;62.80
75719;DHT22;64340;48.534;-3.036;2023-12-20T11:10:43;15.20;62.90
75719;DHT22;64340;48.534;-3.036;2023-12-20T11:13:31;15.20;63.80
75719;DHT22;64340;48.534;-3.036;2023-12-20T11:15:59;14.90;64.20
75719;DHT22;64340;48.534;-3.036;2023-12-20T11:18:31;15.00;64.00
75719;DHT22;64340;48.534;-3.036;2023-12-20T11:21:01;15.10;63.70
75719;DHT22;64340;48.534;-3.036;2023-12-20T11:23:30;15.20;63.50
75719;DHT22;64340;48.534;-3.036;2023-12-20T11:25:58;15.20;63.60
75719;DHT22;64340;48.534;-3.036;2023-12-20T11:28:25;15.20;63.40
75719;DHT22;64340;48.534;-3.036;2023-12-20T11:30:52;15.20;64.10
75719;DHT22;64340;48.534;-3.036;2023-12-20T11:33:26;14.80;65.50
75719;DHT22;64340;48.534;-3.036;2023-12-20T11:35:55;14.80;65.30
75719;DHT22;64340;48.534;-3.036;2023-12-20T11:38:21;15.00;64.60
75719;DHT22;64340;48.534;-3.036;2023-12-20T11:40:50;15.10;64.30
75719;DHT22;64340;48.534;-3.036;2023-12-20T11:43:37;15.20;64.20
75719;DHT22;64340;48.534;-3.036;2023-12-20T11:46:04;15.30;63.90
75719;DHT22;64340;48.534;-3.036;2023-12-20T11:48:32;15.30;64.00
75719;DHT22;64340;48.534;-3.036;2023-12-20T11:50:58;15.40;63.90
75719;DHT22;64340;48.534;-3.036;2023-12-20T11:53:24;15.50;64.00
75719;DHT22;64340;48.534;-3.036;2023-12-20T11:55:50;15.60;63.80
75719;DHT22;64340;48.534;-3.036;2023-12-20T11:58:16;15.80;63.60
75719;DHT22;64340;48.534;-3.036;2023-12-20T12:00:42;15.90;63.30
75719;DHT22;64340;48.534;-3.036;2023-12-20T12:03:09;16.00;63.20
75719;DHT22;64340;48.534;-3.036;2023-12-20T12:05:35;16.20;63.00
75719;DHT22;64340;48.534;-3.036;2023-12-20T12:08:02;16.30;62.70
75719;DHT22;64340;48.534;-3.036;2023-12-20T12:10:28;16.40;62.60
75719;DHT22;64340;48.534;-3.036;2023-12-20T12:12:54;16.40;62.50
75719;DHT22;64340;48.534;-3.036;2023-12-20T12:15:20;16.50;62.50
75719;DHT22;64340;48.534;-3.036;2023-12-20T12:17:53;16.60;62.60
75719;DHT22;64340;48.534;-3.036;2023-12-20T12:20:20;16.60;62.40
75719;DHT22;64340;48.534;-3.036;2023-12-20T12:22:46;16.60;62.60
75719;DHT22;64340;48.534;-3.036;2023-12-20T12:25:16;16.60;62.50
75719;DHT22;64340;48.534;-3.036;2023-12-20T12:27:42;16.70;62.60
75719;DHT22;64340;48.534;-3.036;2023-12-20T12:30:09;16.60;62.80
75719;DHT22;64340;48.534;-3.036;2023-12-20T12:32:36;16.60;62.70
75719;DHT22;64340;48.534;-3.036;2023-12-20T12:35:05;16.60;62.70
75719;DHT22;64340;48.534;-3.036;2023-12-20T12:37:33;16.60;62.70
75719;DHT22;64340;48.534;-3.036;2023-12-20T12:39:59;16.60;62.70
75719;DHT22;64340;48.534;-3.036;2023-12-20T12:42:25;16.70;62.70
75719;DHT22;64340;48.534;-3.036;2023-12-20T12:44:54;16.70;62.70
75719;DHT22;64340;48.534;-3.036;2023-12-20T12:47:21;16.70;62.70
75719;DHT22;64340;48.534;-3.036;2023-12-20T12:49:47;16.70;62.70
75719;DHT22;64340;48.534;-3.036;2023-12-20T12:52:13;16.70;62.60
75719;DHT22;64340;48.534;-3.036;2023-12-20T12:54:39;16.70;62.60
75719;DHT22;64340;48.534;-3.036;2023-12-20T12:57:04;16.70;62.60
75719;DHT22;64340;48.534;-3.036;2023-12-20T12:59:30;16.70;62.60
75719;DHT22;64340;48.534;-3.036;2023-12-20T13:01:56;16.70;62.70
75719;DHT22;64340;48.534;-3.036;2023-12-20T13:04:22;16.60;62.70
75719;DHT22;64340;48.534;-3.036;2023-12-20T13:06:48;16.60;63.00
75719;DHT22;64340;48.534;-3.036;2023-12-20T13:09:13;16.50;63.00
75719;DHT22;64340;48.534;-3.036;2023-12-20T13:11:40;16.50;63.20
75719;DHT22;64340;48.534;-3.036;2023-12-20T13:14:06;16.50;63.30
75719;DHT22;64340;48.534;-3.036;2023-12-20T13:16:36;16.50;63.40
75719;DHT22;64340;48.534;-3.036;2023-12-20T13:19:01;16.50;63.50
75719;DHT22;64340;48.534;-3.036;2023-12-20T13:21:27;16.50;63.50
75719;DHT22;64340;48.534;-3.036;2023-12-20T13:23:53;16.50;63.40
75719;DHT22;64340;48.534;-3.036;2023-12-20T13:26:19;16.50;63.20
75719;DHT22;64340;48.534;-3.036;2023-12-20T13:28:45;16.60;63.10
75719;DHT22;64340;48.534;-3.036;2023-12-20T13:31:11;16.60;63.10
75719;DHT22;64340;48.534;-3.036;2023-12-20T13:33:36;16.60;63.10
75719;DHT22;64340;48.534;-3.036;2023-12-20T13:36:04;16.60;63.00
75719;DHT22;64340;48.534;-3.036;2023-12-20T13:38:30;16.60;63.00
75719;DHT22;64340;48.534;-3.036;2023-12-20T13:40:56;16.60;63.00
75719;DHT22;64340;48.534;-3.036;2023-12-20T13:43:23;16.60;63.00
75719;DHT22;64340;48.534;-3.036;2023-12-20T13:45:50;16.60;63.00
75719;DHT22;64340;48.534;-3.036;2023-12-20T13:48:16;16.60;63.00
75719;DHT22;64340;48.534;-3.036;2023-12-20T13:50:42;16.60;63.00
75719;DHT22;64340;48.534;-3.036;2023-12-20T13:53:08;16.60;63.20
75719;DHT22;64340;48.534;-3.036;2023-12-20T13:55:33;16.60;63.20
75719;DHT22;64340;48.534;-3.036;2023-12-20T13:57:59;16.60;63.30
75719;DHT22;64340;48.534;-3.036;2023-12-20T14:00:25;16.50;63.40
75719;DHT22;64340;48.534;-3.036;2023-12-20T14:02:50;16.50;63.40
75719;DHT22;64340;48.534;-3.036;2023-12-20T14:05:16;16.60;63.30
75719;DHT22;64340;48.534;-3.036;2023-12-20T14:07:45;16.60;63.30
75719;DHT22;64340;48.534;-3.036;2023-12-20T14:10:14;16.60;63.40
75719;DHT22;64340;48.534;-3.036;2023-12-20T14:12:40;16.60;63.40
75719;DHT22;64340;48.534;-3.036;2023-12-20T14:15:06;16.60;63.30
75719;DHT22;64340;48.534;-3.036;2023-12-20T14:17:40;16.60;63.30
75719;DHT22;64340;48.534;-3.036;2023-12-20T14:20:06;16.60;63.40
75719;DHT22;64340;48.534;-3.036;2023-12-20T14:22:35;16.60;63.30
75719;DHT22;64340;48.534;-3.036;2023-12-20T14:25:02;16.50;63.20
75719;DHT22;64340;48.534;-3.036;2023-12-20T14:27:28;16.20;63.80
75719;DHT22;64340;48.534;-3.036;2023-12-20T14:29:54;16.00;64.40
75719;DHT22;64340;48.534;-3.036;2023-12-20T14:32:20;15.80;64.70
75719;DHT22;64340;48.534;-3.036;2023-12-20T14:34:46;15.60;65.00
75719;DHT22;64340;48.534;-3.036;2023-12-20T14:37:12;15.60;65.10
75719;DHT22;64340;48.534;-3.036;2023-12-20T14:39:38;15.70;65.00
75719;DHT22;64340;48.534;-3.036;2023-12-20T14:42:10;16.00;64.40
75719;DHT22;64340;48.534;-3.036;2023-12-20T14:44:41;16.20;63.90
75719;DHT22;64340;48.534;-3.036;2023-12-20T14:47:07;16.40;63.80
75719;DHT22;64340;48.534;-3.036;2023-12-20T14:49:33;16.50;63.50
75719;DHT22;64340;48.534;-3.036;2023-12-20T14:51:59;16.60;63.60
75719;DHT22;64340;48.534;-3.036;2023-12-20T14:54:25;16.60;63.70
75719;DHT22;64340;48.534;-3.036;2023-12-20T14:56:51;16.70;63.60
75719;DHT22;64340;48.534;-3.036;2023-12-20T14:59:17;16.80;63.30
75719;DHT22;64340;48.534;-3.036;2023-12-20T15:01:44;16.90;63.40
75719;DHT22;64340;48.534;-3.036;2023-12-20T15:04:10;17.00;63.30
75719;DHT22;64340;48.534;-3.036;2023-12-20T15:06:36;17.00;63.20
75719;DHT22;64340;48.534;-3.036;2023-12-20T15:09:02;17.10;63.00
75719;DHT22;64340;48.534;-3.036;2023-12-20T15:11:31;17.10;63.00
75719;DHT22;64340;48.534;-3.036;2023-12-20T15:13:57;17.10;63.00